sensor_id;sensor_type;location;lat;lon;timestamp;P1;durP1;ratioP1;P2;durP2;ratioP2
69161;SDS011;56269;51.738;21.652;2023-09-12T00:02:18;25.47;;;13.57;;
69161;SDS011;56269;51.738;21.652;2023-09-12T00:04:45;24.30;;;12.77;;
69161;SDS011;56269;51.738;21.652;2023-09-12T00:07:11;23.92;;;12.95;;
69161;SDS011;56269;51.738;21.652;2023-09-12T00:09:37;24.50;;;12.85;;
69161;SDS011;56269;51.738;21.652;2023-09-12T00:12:03;23.92;;;13.20;;
69161;SDS011;56269;51.738;21.652;2023-09-12T00:14:30;25.20;;;13.07;;
69161;SDS011;56269;51.738;21.652;2023-09-12T00:16:56;24.48;;;13.18;;
69161;SDS011;56269;51.738;21.652;2023-09-12T00:19:22;26.77;;;13.77;;
69161;SDS011;56269;51.738;21.652;2023-09-12T00:21:48;23.70;;;12.88;;
69161;SDS011;56269;51.738;21.652;2023-09-12T00:24:15;24.23;;;12.90;;
69161;SDS011;56269;51.738;21.652;2023-09-12T00:26:41;24.30;;;13.45;;
69161;SDS011;56269;51.738;21.652;2023-09-12T00:29:07;22.52;;;13.02;;
69161;SDS011;56269;51.738;21.652;2023-09-12T00:31:34;23.13;;;12.15;;
69161;SDS011;56269;51.738;21.652;2023-09-12T00:34:00;27.70;;;13.57;;
69161;SDS011;56269;51.738;21.652;2023-09-12T00:36:26;26.83;;;13.57;;
69161;SDS011;56269;51.738;21.652;2023-09-12T00:38:52;25.75;;;13.95;;
69161;SDS011;56269;51.738;21.652;2023-09-12T00:41:18;27.15;;;14.35;;
69161;SDS011;56269;51.738;21.652;2023-09-12T00:43:44;25.27;;;13.98;;
69161;SDS011;56269;51.738;21.652;2023-09-12T00:46:11;26.50;;;13.90;;
69161;SDS011;56269;51.738;21.652;2023-09-12T00:48:42;27.98;;;13.25;;
69161;SDS011;56269;51.738;21.652;2023-09-12T00:51:08;25.45;;;12.93;;
69161;SDS011;56269;51.738;21.652;2023-09-12T00:53:35;26.10;;;13.20;;
69161;SDS011;56269;51.738;21.652;2023-09-12T00:56:02;24.60;;;12.45;;
69161;SDS011;56269;51.738;21.652;2023-09-12T00:58:28;26.93;;;13.30;;
69161;SDS011;56269;51.738;21.652;2023-09-12T01:00:55;25.75;;;14.23;;
69161;SDS011;56269;51.738;21.652;2023-09-12T01:03:22;27.75;;;14.48;;
69161;SDS011;56269;51.738;21.652;2023-09-12T01:05:48;25.85;;;14.13;;
69161;SDS011;56269;51.738;21.652;2023-09-12T01:08:14;25.15;;;13.55;;
69161;SDS011;56269;51.738;21.652;2023-09-12T01:10:41;24.37;;;13.13;;
69161;SDS011;56269;51.738;21.652;2023-09-12T01:13:12;24.25;;;12.98;;
69161;SDS011;56269;51.738;21.652;2023-09-12T01:15:40;26.17;;;13.52;;
69161;SDS011;56269;51.738;21.652;2023-09-12T01:18:09;25.33;;;13.15;;
69161;SDS011;56269;51.738;21.652;2023-09-12T01:20:35;25.83;;;13.55;;
69161;SDS011;56269;51.738;21.652;2023-09-12T01:29:05;25.30;;;12.98;;
69161;SDS011;56269;51.738;21.652;2023-09-12T01:31:34;25.77;;;13.50;;
69161;SDS011;56269;51.738;21.652;2023-09-12T01:34:11;24.48;;;12.70;;
69161;SDS011;56269;51.738;21.652;2023-09-12T01:36:38;27.43;;;13.23;;
69161;SDS011;56269;51.738;21.652;2023-09-12T01:39:05;23.85;;;12.57;;
69161;SDS011;56269;51.738;21.652;2023-09-12T01:41:34;25.85;;;13.38;;
69161;SDS011;56269;51.738;21.652;2023-09-12T01:44:04;24.42;;;13.10;;
69161;SDS011;56269;51.738;21.652;2023-09-12T01:46:33;23.08;;;12.98;;
69161;SDS011;56269;51.738;21.652;2023-09-12T01:49:01;23.43;;;13.20;;
69161;SDS011;56269;51.738;21.652;2023-09-12T01:51:30;23.77;;;13.25;;
69161;SDS011;56269;51.738;21.652;2023-09-12T01:53:56;27.45;;;14.13;;
69161;SDS011;56269;51.738;21.652;2023-09-12T01:56:24;25.08;;;13.60;;
69161;SDS011;56269;51.738;21.652;2023-09-12T01:58:51;25.83;;;13.43;;
69161;SDS011;56269;51.738;21.652;2023-09-12T02:01:17;25.10;;;13.57;;
69161;SDS011;56269;51.738;21.652;2023-09-12T02:03:43;23.35;;;12.75;;
69161;SDS011;56269;51.738;21.652;2023-09-12T02:06:10;24.92;;;13.75;;
69161;SDS011;56269;51.738;21.652;2023-09-12T02:08:35;26.63;;;13.65;;
69161;SDS011;56269;51.738;21.652;2023-09-12T02:11:02;26.98;;;14.10;;
69161;SDS011;56269;51.738;21.652;2023-09-12T02:13:28;23.13;;;12.50;;
69161;SDS011;56269;51.738;21.652;2023-09-12T02:16:00;24.70;;;12.95;;
69161;SDS011;56269;51.738;21.652;2023-09-12T02:18:28;25.25;;;12.95;;
69161;SDS011;56269;51.738;21.652;2023-09-12T02:20:55;24.67;;;12.80;;
69161;SDS011;56269;51.738;21.652;2023-09-12T02:23:21;26.95;;;13.60;;
69161;SDS011;56269;51.738;21.652;2023-09-12T02:25:48;25.00;;;13.53;;
69161;SDS011;56269;51.738;21.652;2023-09-12T02:28:14;25.27;;;14.00;;
69161;SDS011;56269;51.738;21.652;2023-09-12T02:30:40;25.42;;;14.25;;
69161;SDS011;56269;51.738;21.652;2023-09-12T02:33:06;24.73;;;13.45;;
69161;SDS011;56269;51.738;21.652;2023-09-12T02:35:32;25.03;;;13.23;;
69161;SDS011;56269;51.738;21.652;2023-09-12T02:38:01;25.70;;;13.05;;
69161;SDS011;56269;51.738;21.652;2023-09-12T02:40:28;24.95;;;13.18;;
69161;SDS011;56269;51.738;21.652;2023-09-12T02:42:54;23.60;;;12.68;;
69161;SDS011;56269;51.738;21.652;2023-09-12T02:45:20;24.88;;;13.32;;
69161;SDS011;56269;51.738;21.652;2023-09-12T02:47:46;27.27;;;13.30;;
69161;SDS011;56269;51.738;21.652;2023-09-12T02:50:12;23.98;;;12.88;;
69161;SDS011;56269;51.738;21.652;2023-09-12T02:52:38;27.92;;;14.80;;
69161;SDS011;56269;51.738;21.652;2023-09-12T02:55:05;30.83;;;15.20;;
69161;SDS011;56269;51.738;21.652;2023-09-12T02:57:31;29.55;;;15.10;;
69161;SDS011;56269;51.738;21.652;2023-09-12T02:59:57;27.30;;;15.40;;
69161;SDS011;56269;51.738;21.652;2023-09-12T03:02:24;27.33;;;14.55;;
69161;SDS011;56269;51.738;21.652;2023-09-12T03:04:50;26.33;;;13.82;;
69161;SDS011;56269;51.738;21.652;2023-09-12T03:07:16;25.83;;;13.27;;
69161;SDS011;56269;51.738;21.652;2023-09-12T03:09:42;23.57;;;13.27;;
69161;SDS011;56269;51.738;21.652;2023-09-12T03:12:08;29.88;;;15.85;;
69161;SDS011;56269;51.738;21.652;2023-09-12T03:14:34;31.65;;;15.48;;
69161;SDS011;56269;51.738;21.652;2023-09-12T03:17:00;25.98;;;13.93;;
69161;SDS011;56269;51.738;21.652;2023-09-12T03:19:26;34.27;;;15.50;;
69161;SDS011;56269;51.738;21.652;2023-09-12T03:21:52;76.03;;;15.15;;
69161;SDS011;56269;51.738;21.652;2023-09-12T03:24:19;192.63;;;17.02;;
69161;SDS011;56269;51.738;21.652;2023-09-12T03:26:46;204.27;;;16.50;;
69161;SDS011;56269;51.738;21.652;2023-09-12T03:29:12;41.92;;;18.27;;
69161;SDS011;56269;51.738;21.652;2023-09-12T03:31:38;69.70;;;17.63;;
69161;SDS011;56269;51.738;21.652;2023-09-12T03:34:05;178.90;;;20.02;;
69161;SDS011;56269;51.738;21.652;2023-09-12T03:36:32;54.97;;;19.05;;
69161;SDS011;56269;51.738;21.652;2023-09-12T03:39:01;40.28;;;19.17;;
69161;SDS011;56269;51.738;21.652;2023-09-12T03:41:29;37.10;;;18.80;;
69161;SDS011;56269;51.738;21.652;2023-09-12T03:43:55;39.70;;;19.77;;
69161;SDS011;56269;51.738;21.652;2023-09-12T03:46:21;41.67;;;19.30;;
69161;SDS011;56269;51.738;21.652;2023-09-12T03:48:48;87.50;;;20.27;;
69161;SDS011;56269;51.738;21.652;2023-09-12T03:51:14;283.98;;;23.05;;
69161;SDS011;56269;51.738;21.652;2023-09-12T03:53:40;270.20;;;18.03;;
69161;SDS011;56269;51.738;21.652;2023-09-12T03:56:07;183.32;;;15.07;;
69161;SDS011;56269;51.738;21.652;2023-09-12T03:58:34;158.32;;;16.27;;
69161;SDS011;56269;51.738;21.652;2023-09-12T04:01:00;184.23;;;17.55;;
69161;SDS011;56269;51.738;21.652;2023-09-12T04:03:26;48.92;;;18.23;;
69161;SDS011;56269;51.738;21.652;2023-09-12T04:05:53;37.63;;;19.07;;
69161;SDS011;56269;51.738;21.652;2023-09-12T04:08:19;194.77;;;20.23;;
69161;SDS011;56269;51.738;21.652;2023-09-12T04:10:45;140.32;;;17.80;;
69161;SDS011;56269;51.738;21.652;2023-09-12T04:13:11;134.85;;;18.15;;
69161;SDS011;56269;51.738;21.652;2023-09-12T04:15:37;235.03;;;17.00;;
69161;SDS011;56269;51.738;21.652;2023-09-12T04:18:06;62.13;;;16.40;;
69161;SDS011;56269;51.738;21.652;2023-09-12T04:20:33;38.22;;;17.17;;
69161;SDS011;56269;51.738;21.652;2023-09-12T04:23:02;30.35;;;16.60;;
69161;SDS011;56269;51.738;21.652;2023-09-12T04:25:31;29.27;;;15.83;;
69161;SDS011;56269;51.738;21.652;2023-09-12T04:27:59;29.45;;;17.30;;
69161;SDS011;56269;51.738;21.652;2023-09-12T04:30:25;36.00;;;18.30;;
69161;SDS011;56269;51.738;21.652;2023-09-12T04:32:51;32.03;;;16.63;;
69161;SDS011;56269;51.738;21.652;2023-09-12T04:35:17;31.20;;;16.97;;
69161;SDS011;56269;51.738;21.652;2023-09-12T04:37:46;33.83;;;16.90;;
69161;SDS011;56269;51.738;21.652;2023-09-12T04:40:14;35.25;;;17.42;;
69161;SDS011;56269;51.738;21.652;2023-09-12T04:42:40;31.38;;;16.77;;
69161;SDS011;56269;51.738;21.652;2023-09-12T04:45:06;34.95;;;17.40;;
69161;SDS011;56269;51.738;21.652;2023-09-12T04:47:33;32.57;;;16.20;;
69161;SDS011;56269;51.738;21.652;2023-09-12T04:49:59;32.10;;;16.40;;
69161;SDS011;56269;51.738;21.652;2023-09-12T04:52:27;34.67;;;17.38;;
69161;SDS011;56269;51.738;21.652;2023-09-12T04:54:52;34.80;;;17.52;;
69161;SDS011;56269;51.738;21.652;2023-09-12T04:57:19;29.50;;;15.53;;
69161;SDS011;56269;51.738;21.652;2023-09-12T04:59:45;33.40;;;16.35;;
69161;SDS011;56269;51.738;21.652;2023-09-12T05:02:11;40.03;;;18.80;;
69161;SDS011;56269;51.738;21.652;2023-09-12T05:04:37;33.60;;;17.83;;
69161;SDS011;56269;51.738;21.652;2023-09-12T05:07:03;33.28;;;17.35;;
69161;SDS011;56269;51.738;21.652;2023-09-12T05:09:29;31.87;;;16.80;;
69161;SDS011;56269;51.738;21.652;2023-09-12T05:11:55;31.83;;;16.77;;
69161;SDS011;56269;51.738;21.652;2023-09-12T05:14:21;33.90;;;17.05;;
69161;SDS011;56269;51.738;21.652;2023-09-12T05:16:48;34.88;;;18.35;;
69161;SDS011;56269;51.738;21.652;2023-09-12T05:19:14;40.40;;;18.43;;
69161;SDS011;56269;51.738;21.652;2023-09-12T05:21:40;33.43;;;18.03;;
69161;SDS011;56269;51.738;21.652;2023-09-12T05:24:06;34.40;;;17.40;;
69161;SDS011;56269;51.738;21.652;2023-09-12T05:26:33;35.50;;;18.25;;
69161;SDS011;56269;51.738;21.652;2023-09-12T05:28:59;37.47;;;18.13;;
69161;SDS011;56269;51.738;21.652;2023-09-12T05:31:25;35.90;;;19.20;;
69161;SDS011;56269;51.738;21.652;2023-09-12T05:33:51;36.87;;;19.67;;
69161;SDS011;56269;51.738;21.652;2023-09-12T05:36:17;43.97;;;20.50;;
69161;SDS011;56269;51.738;21.652;2023-09-12T05:38:46;39.65;;;20.73;;
69161;SDS011;56269;51.738;21.652;2023-09-12T05:41:12;41.50;;;21.70;;
69161;SDS011;56269;51.738;21.652;2023-09-12T05:43:38;38.30;;;20.23;;
69161;SDS011;56269;51.738;21.652;2023-09-12T05:46:04;39.50;;;20.77;;
69161;SDS011;56269;51.738;21.652;2023-09-12T05:48:30;37.47;;;19.55;;
69161;SDS011;56269;51.738;21.652;2023-09-12T05:50:56;38.33;;;20.48;;
69161;SDS011;56269;51.738;21.652;2023-09-12T05:53:22;35.67;;;19.33;;
69161;SDS011;56269;51.738;21.652;2023-09-12T05:55:49;36.13;;;18.77;;
69161;SDS011;56269;51.738;21.652;2023-09-12T05:58:15;30.75;;;17.98;;
69161;SDS011;56269;51.738;21.652;2023-09-12T06:00:41;30.88;;;18.20;;
69161;SDS011;56269;51.738;21.652;2023-09-12T06:03:07;31.63;;;17.52;;
69161;SDS011;56269;51.738;21.652;2023-09-12T06:05:34;30.83;;;16.88;;
69161;SDS011;56269;51.738;21.652;2023-09-12T06:08:00;28.70;;;16.33;;
69161;SDS011;56269;51.738;21.652;2023-09-12T06:10:26;26.95;;;16.70;;
69161;SDS011;56269;51.738;21.652;2023-09-12T06:12:55;28.10;;;15.90;;
69161;SDS011;56269;51.738;21.652;2023-09-12T06:15:21;29.10;;;16.10;;
69161;SDS011;56269;51.738;21.652;2023-09-12T06:17:49;28.17;;;15.32;;
69161;SDS011;56269;51.738;21.652;2023-09-12T06:20:16;26.90;;;14.67;;
69161;SDS011;56269;51.738;21.652;2023-09-12T06:22:42;23.70;;;14.65;;
69161;SDS011;56269;51.738;21.652;2023-09-12T06:25:09;27.45;;;14.57;;
69161;SDS011;56269;51.738;21.652;2023-09-12T06:27:35;28.45;;;15.18;;
69161;SDS011;56269;51.738;21.652;2023-09-12T06:30:01;25.45;;;14.60;;
69161;SDS011;56269;51.738;21.652;2023-09-12T06:32:27;25.03;;;14.40;;
69161;SDS011;56269;51.738;21.652;2023-09-12T06:34:56;25.60;;;14.55;;
69161;SDS011;56269;51.738;21.652;2023-09-12T06:37:22;26.02;;;14.07;;
69161;SDS011;56269;51.738;21.652;2023-09-12T06:39:51;26.17;;;14.85;;
69161;SDS011;56269;51.738;21.652;2023-09-12T06:42:17;31.52;;;15.40;;
69161;SDS011;56269;51.738;21.652;2023-09-12T06:44:44;27.60;;;15.30;;
69161;SDS011;56269;51.738;21.652;2023-09-12T06:47:10;25.42;;;15.30;;
69161;SDS011;56269;51.738;21.652;2023-09-12T06:49:36;25.95;;;15.15;;
69161;SDS011;56269;51.738;21.652;2023-09-12T06:52:03;23.80;;;14.55;;
69161;SDS011;56269;51.738;21.652;2023-09-12T06:54:29;26.23;;;15.03;;
69161;SDS011;56269;51.738;21.652;2023-09-12T06:56:55;28.48;;;15.13;;
69161;SDS011;56269;51.738;21.652;2023-09-12T06:59:22;31.70;;;15.45;;
69161;SDS011;56269;51.738;21.652;2023-09-12T07:01:48;27.25;;;15.40;;
69161;SDS011;56269;51.738;21.652;2023-09-12T07:04:14;25.83;;;15.82;;
69161;SDS011;56269;51.738;21.652;2023-09-12T07:06:41;28.10;;;14.70;;
69161;SDS011;56269;51.738;21.652;2023-09-12T07:09:08;25.23;;;15.07;;
69161;SDS011;56269;51.738;21.652;2023-09-12T07:11:34;22.42;;;14.50;;
69161;SDS011;56269;51.738;21.652;2023-09-12T07:14:01;22.98;;;14.25;;
69161;SDS011;56269;51.738;21.652;2023-09-12T07:16:30;23.90;;;14.27;;
69161;SDS011;56269;51.738;21.652;2023-09-12T07:18:57;24.07;;;14.27;;
69161;SDS011;56269;51.738;21.652;2023-09-12T07:21:23;24.40;;;14.85;;
69161;SDS011;56269;51.738;21.652;2023-09-12T07:23:49;23.70;;;14.93;;
69161;SDS011;56269;51.738;21.652;2023-09-12T07:26:15;24.77;;;15.05;;
69161;SDS011;56269;51.738;21.652;2023-09-12T07:28:42;27.00;;;15.27;;
69161;SDS011;56269;51.738;21.652;2023-09-12T07:31:08;24.33;;;14.70;;
69161;SDS011;56269;51.738;21.652;2023-09-12T07:33:34;23.20;;;14.35;;
69161;SDS011;56269;51.738;21.652;2023-09-12T07:36:00;22.77;;;14.38;;
69161;SDS011;56269;51.738;21.652;2023-09-12T07:38:28;25.05;;;14.57;;
69161;SDS011;56269;51.738;21.652;2023-09-12T07:40:56;23.00;;;14.07;;
69161;SDS011;56269;51.738;21.652;2023-09-12T07:43:23;25.92;;;14.98;;
69161;SDS011;56269;51.738;21.652;2023-09-12T07:45:54;22.58;;;14.32;;
69161;SDS011;56269;51.738;21.652;2023-09-12T07:48:21;22.00;;;13.90;;
69161;SDS011;56269;51.738;21.652;2023-09-12T07:50:47;23.38;;;14.93;;
69161;SDS011;56269;51.738;21.652;2023-09-12T07:53:14;22.03;;;14.00;;
69161;SDS011;56269;51.738;21.652;2023-09-12T07:55:40;21.90;;;13.68;;
69161;SDS011;56269;51.738;21.652;2023-09-12T07:58:14;22.77;;;13.85;;
69161;SDS011;56269;51.738;21.652;2023-09-12T08:00:43;20.30;;;12.77;;
69161;SDS011;56269;51.738;21.652;2023-09-12T08:03:10;19.58;;;12.15;;
69161;SDS011;56269;51.738;21.652;2023-09-12T08:05:36;17.27;;;11.57;;
69161;SDS011;56269;51.738;21.652;2023-09-12T08:08:04;17.50;;;11.23;;
69161;SDS011;56269;51.738;21.652;2023-09-12T08:10:30;17.42;;;10.77;;
69161;SDS011;56269;51.738;21.652;2023-09-12T08:12:56;17.55;;;11.00;;
69161;SDS011;56269;51.738;21.652;2023-09-12T08:15:22;16.65;;;10.52;;
69161;SDS011;56269;51.738;21.652;2023-09-12T08:17:48;15.63;;;9.53;;
69161;SDS011;56269;51.738;21.652;2023-09-12T08:20:17;16.20;;;9.85;;
69161;SDS011;56269;51.738;21.652;2023-09-12T08:22:45;17.45;;;10.43;;
69161;SDS011;56269;51.738;21.652;2023-09-12T08:25:11;16.05;;;10.18;;
69161;SDS011;56269;51.738;21.652;2023-09-12T08:27:40;15.43;;;10.27;;
69161;SDS011;56269;51.738;21.652;2023-09-12T08:30:07;14.00;;;9.20;;
69161;SDS011;56269;51.738;21.652;2023-09-12T08:32:34;16.70;;;10.85;;
69161;SDS011;56269;51.738;21.652;2023-09-12T08:35:00;14.43;;;9.30;;
69161;SDS011;56269;51.738;21.652;2023-09-12T08:37:26;14.23;;;8.98;;
69161;SDS011;56269;51.738;21.652;2023-09-12T08:39:52;14.45;;;9.70;;
69161;SDS011;56269;51.738;21.652;2023-09-12T08:42:22;15.87;;;9.57;;
69161;SDS011;56269;51.738;21.652;2023-09-12T08:44:49;13.40;;;8.60;;
69161;SDS011;56269;51.738;21.652;2023-09-12T08:47:15;13.15;;;8.43;;
69161;SDS011;56269;51.738;21.652;2023-09-12T08:49:45;13.48;;;8.23;;
69161;SDS011;56269;51.738;21.652;2023-09-12T08:52:11;13.63;;;8.82;;
69161;SDS011;56269;51.738;21.652;2023-09-12T08:54:37;12.80;;;8.53;;
69161;SDS011;56269;51.738;21.652;2023-09-12T08:57:04;14.20;;;8.13;;
69161;SDS011;56269;51.738;21.652;2023-09-12T08:59:33;13.57;;;8.80;;
69161;SDS011;56269;51.738;21.652;2023-09-12T09:02:00;11.88;;;8.13;;
69161;SDS011;56269;51.738;21.652;2023-09-12T09:04:28;11.93;;;8.43;;
69161;SDS011;56269;51.738;21.652;2023-09-12T09:06:57;13.07;;;7.80;;
69161;SDS011;56269;51.738;21.652;2023-09-12T09:09:25;12.65;;;7.43;;
69161;SDS011;56269;51.738;21.652;2023-09-12T09:11:54;11.50;;;7.53;;
69161;SDS011;56269;51.738;21.652;2023-09-12T09:14:20;11.82;;;7.55;;
69161;SDS011;56269;51.738;21.652;2023-09-12T09:16:46;11.88;;;7.50;;
69161;SDS011;56269;51.738;21.652;2023-09-12T09:19:12;11.47;;;7.03;;
69161;SDS011;56269;51.738;21.652;2023-09-12T09:21:39;11.23;;;7.15;;
69161;SDS011;56269;51.738;21.652;2023-09-12T09:24:09;11.95;;;7.20;;
69161;SDS011;56269;51.738;21.652;2023-09-12T09:26:41;10.32;;;6.70;;
69161;SDS011;56269;51.738;21.652;2023-09-12T09:29:10;11.25;;;6.88;;
69161;SDS011;56269;51.738;21.652;2023-09-12T09:31:40;10.97;;;6.93;;
69161;SDS011;56269;51.738;21.652;2023-09-12T09:34:11;13.02;;;7.57;;
69161;SDS011;56269;51.738;21.652;2023-09-12T09:36:42;10.63;;;6.45;;
69161;SDS011;56269;51.738;21.652;2023-09-12T09:39:18;12.13;;;6.93;;
69161;SDS011;56269;51.738;21.652;2023-09-12T09:41:47;11.52;;;6.95;;
69161;SDS011;56269;51.738;21.652;2023-09-12T09:44:14;11.40;;;7.10;;
69161;SDS011;56269;51.738;21.652;2023-09-12T09:46:44;12.27;;;6.55;;
69161;SDS011;56269;51.738;21.652;2023-09-12T09:49:11;11.82;;;6.93;;
69161;SDS011;56269;51.738;21.652;2023-09-12T09:51:41;9.98;;;6.68;;
69161;SDS011;56269;51.738;21.652;2023-09-12T09:54:11;11.27;;;6.95;;
69161;SDS011;56269;51.738;21.652;2023-09-12T09:56:47;10.13;;;6.90;;
69161;SDS011;56269;51.738;21.652;2023-09-12T09:59:18;11.07;;;6.90;;
69161;SDS011;56269;51.738;21.652;2023-09-12T10:01:45;9.85;;;6.65;;
69161;SDS011;56269;51.738;21.652;2023-09-12T10:04:11;11.63;;;6.90;;
69161;SDS011;56269;51.738;21.652;2023-09-12T10:06:38;12.85;;;7.30;;
69161;SDS011;56269;51.738;21.652;2023-09-12T10:09:07;11.17;;;7.27;;
69161;SDS011;56269;51.738;21.652;2023-09-12T10:11:36;10.73;;;7.40;;
69161;SDS011;56269;51.738;21.652;2023-09-12T10:14:07;10.50;;;7.40;;
69161;SDS011;56269;51.738;21.652;2023-09-12T10:16:34;10.13;;;6.78;;
69161;SDS011;56269;51.738;21.652;2023-09-12T10:19:26;12.05;;;7.28;;
69161;SDS011;56269;51.738;21.652;2023-09-12T10:22:09;10.70;;;7.20;;
69161;SDS011;56269;51.738;21.652;2023-09-12T10:24:42;10.85;;;7.07;;
69161;SDS011;56269;51.738;21.652;2023-09-12T10:27:11;10.93;;;7.25;;
69161;SDS011;56269;51.738;21.652;2023-09-12T10:29:39;10.93;;;7.38;;
69161;SDS011;56269;51.738;21.652;2023-09-12T10:32:05;11.57;;;7.63;;
69161;SDS011;56269;51.738;21.652;2023-09-12T10:34:33;11.53;;;7.00;;
69161;SDS011;56269;51.738;21.652;2023-09-12T10:37:02;12.02;;;7.15;;
69161;SDS011;56269;51.738;21.652;2023-09-12T10:39:31;11.45;;;7.65;;
69161;SDS011;56269;51.738;21.652;2023-09-12T10:41:58;10.65;;;7.25;;
69161;SDS011;56269;51.738;21.652;2023-09-12T10:44:24;10.93;;;7.18;;
69161;SDS011;56269;51.738;21.652;2023-09-12T10:46:52;10.80;;;6.70;;
69161;SDS011;56269;51.738;21.652;2023-09-12T10:49:20;11.40;;;7.18;;
69161;SDS011;56269;51.738;21.652;2023-09-12T10:51:47;11.20;;;7.68;;
69161;SDS011;56269;51.738;21.652;2023-09-12T10:54:14;12.70;;;7.22;;
69161;SDS011;56269;51.738;21.652;2023-09-12T10:56:42;10.68;;;7.20;;
69161;SDS011;56269;51.738;21.652;2023-09-12T10:59:10;10.03;;;6.90;;
69161;SDS011;56269;51.738;21.652;2023-09-12T11:01:39;11.52;;;7.35;;
69161;SDS011;56269;51.738;21.652;2023-09-12T11:06:45;11.50;;;7.25;;
69161;SDS011;56269;51.738;21.652;2023-09-12T11:11:45;10.23;;;7.03;;
69161;SDS011;56269;51.738;21.652;2023-09-12T11:14:13;10.48;;;7.25;;
69161;SDS011;56269;51.738;21.652;2023-09-12T11:16:41;10.57;;;7.13;;
69161;SDS011;56269;51.738;21.652;2023-09-12T11:19:12;10.55;;;7.50;;
69161;SDS011;56269;51.738;21.652;2023-09-12T11:21:39;10.20;;;7.13;;
69161;SDS011;56269;51.738;21.652;2023-09-12T11:24:05;11.57;;;7.57;;
69161;SDS011;56269;51.738;21.652;2023-09-12T11:26:32;10.50;;;7.10;;
69161;SDS011;56269;51.738;21.652;2023-09-12T11:29:10;11.23;;;7.32;;
69161;SDS011;56269;51.738;21.652;2023-09-12T11:31:37;10.80;;;7.05;;
69161;SDS011;56269;51.738;21.652;2023-09-12T11:34:10;11.55;;;7.63;;
69161;SDS011;56269;51.738;21.652;2023-09-12T11:36:41;10.87;;;7.20;;
69161;SDS011;56269;51.738;21.652;2023-09-12T11:39:21;12.13;;;7.22;;
69161;SDS011;56269;51.738;21.652;2023-09-12T11:41:50;11.95;;;7.40;;
69161;SDS011;56269;51.738;21.652;2023-09-12T11:44:17;11.52;;;7.22;;
69161;SDS011;56269;51.738;21.652;2023-09-12T11:46:46;9.95;;;7.13;;
69161;SDS011;56269;51.738;21.652;2023-09-12T11:49:15;11.33;;;7.03;;
69161;SDS011;56269;51.738;21.652;2023-09-12T11:51:47;10.27;;;6.70;;
69161;SDS011;56269;51.738;21.652;2023-09-12T11:54:19;11.13;;;7.38;;
69161;SDS011;56269;51.738;21.652;2023-09-12T11:56:52;10.90;;;7.40;;
69161;SDS011;56269;51.738;21.652;2023-09-12T11:59:31;14.45;;;7.57;;
69161;SDS011;56269;51.738;21.652;2023-09-12T12:01:57;11.80;;;7.43;;
69161;SDS011;56269;51.738;21.652;2023-09-12T12:04:24;11.02;;;7.10;;
69161;SDS011;56269;51.738;21.652;2023-09-12T12:06:51;10.60;;;7.00;;
69161;SDS011;56269;51.738;21.652;2023-09-12T12:09:18;10.40;;;7.13;;
69161;SDS011;56269;51.738;21.652;2023-09-12T12:11:48;10.85;;;7.50;;
69161;SDS011;56269;51.738;21.652;2023-09-12T12:14:17;12.13;;;7.53;;
69161;SDS011;56269;51.738;21.652;2023-09-12T12:16:45;10.98;;;7.72;;
69161;SDS011;56269;51.738;21.652;2023-09-12T12:19:12;11.32;;;7.50;;
69161;SDS011;56269;51.738;21.652;2023-09-12T12:21:40;10.93;;;7.25;;
69161;SDS011;56269;51.738;21.652;2023-09-12T12:24:07;11.18;;;7.65;;
69161;SDS011;56269;51.738;21.652;2023-09-12T12:26:36;10.90;;;7.50;;
69161;SDS011;56269;51.738;21.652;2023-09-12T12:29:03;11.45;;;8.25;;
69161;SDS011;56269;51.738;21.652;2023-09-12T12:31:30;11.13;;;7.70;;
69161;SDS011;56269;51.738;21.652;2023-09-12T12:33:56;12.10;;;7.90;;
69161;SDS011;56269;51.738;21.652;2023-09-12T12:36:25;12.13;;;8.32;;
69161;SDS011;56269;51.738;21.652;2023-09-12T12:38:52;10.90;;;7.53;;
69161;SDS011;56269;51.738;21.652;2023-09-12T12:41:23;11.32;;;7.75;;
69161;SDS011;56269;51.738;21.652;2023-09-12T12:43:51;13.77;;;8.13;;
69161;SDS011;56269;51.738;21.652;2023-09-12T12:46:20;12.77;;;8.23;;
69161;SDS011;56269;51.738;21.652;2023-09-12T12:48:47;11.43;;;8.18;;
69161;SDS011;56269;51.738;21.652;2023-09-12T12:51:18;13.57;;;7.77;;
69161;SDS011;56269;51.738;21.652;2023-09-12T12:53:55;12.18;;;8.43;;
69161;SDS011;56269;51.738;21.652;2023-09-12T12:56:29;12.05;;;8.05;;
69161;SDS011;56269;51.738;21.652;2023-09-12T12:58:56;11.75;;;8.43;;
69161;SDS011;56269;51.738;21.652;2023-09-12T13:01:24;11.63;;;8.23;;
69161;SDS011;56269;51.738;21.652;2023-09-12T13:03:50;12.00;;;8.33;;
69161;SDS011;56269;51.738;21.652;2023-09-12T13:06:17;13.10;;;8.15;;
69161;SDS011;56269;51.738;21.652;2023-09-12T13:08:44;12.40;;;8.68;;
69161;SDS011;56269;51.738;21.652;2023-09-12T13:11:12;12.13;;;8.25;;
69161;SDS011;56269;51.738;21.652;2023-09-12T13:13:39;11.80;;;8.50;;
69161;SDS011;56269;51.738;21.652;2023-09-12T13:16:07;10.67;;;7.63;;
69161;SDS011;56269;51.738;21.652;2023-09-12T13:18:36;11.52;;;8.10;;
69161;SDS011;56269;51.738;21.652;2023-09-12T13:21:03;11.70;;;7.85;;
69161;SDS011;56269;51.738;21.652;2023-09-12T13:23:29;12.65;;;8.20;;
69161;SDS011;56269;51.738;21.652;2023-09-12T13:25:56;13.20;;;8.68;;
69161;SDS011;56269;51.738;21.652;2023-09-12T13:28:23;11.73;;;8.30;;
69161;SDS011;56269;51.738;21.652;2023-09-12T13:30:52;11.95;;;8.50;;
69161;SDS011;56269;51.738;21.652;2023-09-12T13:33:18;13.68;;;8.18;;
69161;SDS011;56269;51.738;21.652;2023-09-12T13:35:46;11.77;;;8.48;;
69161;SDS011;56269;51.738;21.652;2023-09-12T13:38:13;11.25;;;8.20;;
69161;SDS011;56269;51.738;21.652;2023-09-12T13:40:43;12.63;;;8.43;;
69161;SDS011;56269;51.738;21.652;2023-09-12T13:43:10;11.88;;;7.93;;
69161;SDS011;56269;51.738;21.652;2023-09-12T13:45:37;12.88;;;8.02;;
69161;SDS011;56269;51.738;21.652;2023-09-12T13:48:04;11.55;;;7.85;;
69161;SDS011;56269;51.738;21.652;2023-09-12T13:50:32;11.65;;;8.13;;
69161;SDS011;56269;51.738;21.652;2023-09-12T13:52:58;12.90;;;8.33;;
69161;SDS011;56269;51.738;21.652;2023-09-12T13:55:25;13.00;;;8.25;;
69161;SDS011;56269;51.738;21.652;2023-09-12T13:57:51;11.57;;;8.43;;
69161;SDS011;56269;51.738;21.652;2023-09-12T14:00:18;11.85;;;7.95;;
69161;SDS011;56269;51.738;21.652;2023-09-12T14:02:44;12.18;;;8.38;;
69161;SDS011;56269;51.738;21.652;2023-09-12T14:05:13;11.33;;;8.03;;
69161;SDS011;56269;51.738;21.652;2023-09-12T14:07:40;12.18;;;8.70;;
69161;SDS011;56269;51.738;21.652;2023-09-12T14:10:06;12.15;;;8.77;;
69161;SDS011;56269;51.738;21.652;2023-09-12T14:12:32;14.23;;;8.35;;
69161;SDS011;56269;51.738;21.652;2023-09-12T14:14:59;12.63;;;8.60;;
69161;SDS011;56269;51.738;21.652;2023-09-12T14:17:26;11.73;;;8.17;;
69161;SDS011;56269;51.738;21.652;2023-09-12T14:19:55;10.93;;;7.32;;
69161;SDS011;56269;51.738;21.652;2023-09-12T14:22:21;12.68;;;7.72;;
69161;SDS011;56269;51.738;21.652;2023-09-12T14:24:49;11.45;;;8.23;;
69161;SDS011;56269;51.738;21.652;2023-09-12T14:27:15;12.23;;;7.90;;